METAR AND TAF INFORMATION
METAR FOR KPOC
ADDS - METARS form results

(0419 UTC 26 February 2021)
Data provider http://aviationweather.gov/metar/data/
 
METAR text: KPOC 260347Z 00000KT 10SM CLR 14/M12 A3006
Conditions at: KPOC (LA VERNE/BRACKET, CA, US) observed 0347 UTC 26 February 2021
Temperature: 14.0°C (57°F)
Dewpoint: -12.0°C (10°F) [RH = 15%]
Pressure (altimeter): 30.06 inches Hg (1018.0 mb)
Winds: calm
Visibility: 10 or more miles (16+ km)
Ceiling: at least 12,000 feet AGL
Clouds: sky clear below 12,000 feet AGL
Weather: no significant weather observed at this time

 AIRPORT MAP

 RUNWAY INFORMATION
Runway 08L Runway length 3661 ft Runway width 75 ft
Runway elevation 976 ft Runway displaced threshold 0 ft Runway heading 93
Runway 26R Runway length 3661 ft Runway width 75 ft
Runway elevation 1011 ft Runway displaced threshold 0 ft Runway heading 273
Runway 08R Runway length 4839 ft Runway width 75 ft
Runway elevation 963 ft Runway displaced threshold 0 ft Runway heading 93
Runway 26L Runway length 4839 ft Runway width 75 ft
Runway elevation 1002 ft Runway displaced threshold 688 ft Runway heading 273

 AIRPORT FREQUENCIES
Type A/D Name SOCAL APP/ Frequency 125.5 MHZ
Type ATIS Name ATIS Frequency 124.4 MHZ
Type CTAF Name CTAF Frequency 118.2 MHZ
Type GND Name GND Frequency 125 MHZ
Type TWR Name TWR Frequency 118.2 MHZ
Type UNIC Name UNICOM Frequency 122.95 MHZ

 AIRPORT NEAR NAVIGATION AIDS

-